createdAt,value
2018-03-17T00:00:11.025Z,100537.22
2018-03-17T00:02:39.775Z,100528.36
2018-03-17T00:05:08.154Z,100536.86
2018-03-17T00:07:36.469Z,100539.86
2018-03-17T00:10:04.825Z,100512.28
2018-03-17T00:12:33.268Z,100534.55
2018-03-17T00:15:01.573Z,100533.05
2018-03-17T00:17:29.930Z,100533.23
2018-03-17T00:19:58.259Z,100529.09
2018-03-17T00:22:26.625Z,100532.62
2018-03-17T00:24:55.734Z,100531.32
2018-03-17T00:27:24.109Z,100542.44
2018-03-17T00:29:52.446Z,100540.14
2018-03-17T00:32:32.573Z,100538.97
2018-03-17T00:35:00.976Z,100541.94
2018-03-17T00:37:29.320Z,100541.23
2018-03-17T00:40:02.023Z,100534.59
2018-03-17T00:42:30.411Z,100531.29
2018-03-17T00:44:58.768Z,100529.59
2018-03-17T00:47:27.136Z,100548.83
2018-03-17T00:49:56.724Z,100543.54
2018-03-17T00:52:26.589Z,100543.04
2018-03-17T00:54:54.972Z,100539.58
2018-03-17T00:57:23.320Z,100538.41
2018-03-17T00:59:52.072Z,100544.13
2018-03-17T01:02:20.429Z,100546.61
2018-03-17T01:04:49.540Z,100542.13
2018-03-17T01:07:17.964Z,100537.28
2018-03-17T01:09:46.328Z,100542.09
2018-03-17T01:12:14.676Z,100544.94
2018-03-17T01:14:43.023Z,100532.96
2018-03-17T01:17:11.349Z,100528.86
2018-03-17T01:19:39.665Z,100523.89
2018-03-17T01:22:08.018Z,100520.39
2018-03-17T01:24:36.388Z,100518.19
2018-03-17T01:27:05.528Z,100527.03
2018-03-17T01:29:33.891Z,100536.72
2018-03-17T01:32:02.260Z,100542.27
2018-03-17T01:34:30.608Z,100536.30
2018-03-17T01:36:58.960Z,100533.48
2018-03-17T01:39:28.135Z,100530.02
2018-03-17T01:41:56.456Z,100544.45
2018-03-17T01:44:24.846Z,100545.33
2018-03-17T01:46:53.220Z,100553.59
2018-03-17T01:49:22.183Z,100545.63
2018-03-17T01:51:51.530Z,100550.06
2018-03-17T01:54:31.556Z,100547.73
2018-03-17T01:57:03.024Z,100545.74
2018-03-17T01:59:31.399Z,100556.20
2018-03-17T02:02:00.852Z,100574.07
2018-03-17T02:04:29.222Z,100546.00
2018-03-17T02:06:57.556Z,100547.80
2018-03-17T02:09:25.978Z,100549.00
2018-03-17T02:11:54.349Z,100563.67
2018-03-17T02:14:22.685Z,100551.64
2018-03-17T02:16:51.060Z,100557.72
2018-03-17T02:19:19.424Z,100559.39
2018-03-17T02:21:47.743Z,100564.11
2018-03-17T02:24:16.157Z,100565.13
2018-03-17T02:26:44.512Z,100570.31
2018-03-17T02:29:12.867Z,100564.14
2018-03-17T02:31:41.196Z,100566.98
2018-03-17T02:34:10.328Z,100570.28
2018-03-17T02:36:39.785Z,100571.02
2018-03-17T02:39:08.100Z,100574.26
2018-03-17T02:41:36.493Z,100577.94
2018-03-17T02:44:04.930Z,100585.41
2018-03-17T02:46:34.982Z,100587.55
2018-03-17T02:49:03.444Z,100586.30
2018-03-17T02:51:31.779Z,100590.23
2018-03-17T02:54:00.163Z,100604.00
2018-03-17T02:56:28.513Z,100597.00
2018-03-17T02:58:56.904Z,100597.58
2018-03-17T03:01:25.252Z,100588.35
2018-03-17T03:03:53.588Z,100595.42
2018-03-17T03:06:21.958Z,100581.36
2018-03-17T03:08:50.341Z,100580.88
2018-03-17T03:11:19.556Z,100580.52
2018-03-17T03:13:48.682Z,100580.61
2018-03-17T03:16:17.040Z,100581.36
2018-03-17T03:18:45.411Z,100590.67
2018-03-17T03:21:14.552Z,100588.36
2018-03-17T03:23:42.928Z,100581.47
2018-03-17T03:26:11.268Z,100593.76
2018-03-17T03:28:39.617Z,100600.58
2018-03-17T03:31:07.999Z,100607.58
2018-03-17T03:33:37.124Z,100615.86
2018-03-17T03:36:06.236Z,100612.39
2018-03-17T03:38:34.616Z,100605.43
2018-03-17T03:41:03.759Z,100616.86
2018-03-17T03:43:32.115Z,100617.13
2018-03-17T03:46:00.451Z,100615.23
2018-03-17T03:48:29.592Z,100617.68
2018-03-17T03:50:57.958Z,100605.05
2018-03-17T03:53:26.296Z,100603.17
2018-03-17T03:55:54.665Z,100618.03
2018-03-17T03:58:23.783Z,100607.91
2018-03-17T04:00:52.155Z,100600.61
2018-03-17T04:03:20.911Z,100610.42
2018-03-17T04:05:50.677Z,100600.41
2018-03-17T04:08:19.035Z,100620.97
2018-03-17T04:10:47.354Z,100612.71
2018-03-17T04:13:15.728Z,100623.95
2018-03-17T04:15:44.064Z,100633.97
2018-03-17T04:18:12.432Z,100621.77
2018-03-17T04:20:40.804Z,100625.34
2018-03-17T04:23:09.919Z,100640.96
2018-03-17T04:25:38.299Z,100635.06
2018-03-17T04:28:07.361Z,100633.63
2018-03-17T04:30:36.493Z,100634.59
2018-03-17T04:33:04.850Z,100635.15
2018-03-17T04:35:34.371Z,100634.82
2018-03-17T04:38:02.763Z,100641.41
2018-03-17T04:40:31.211Z,100645.62
2018-03-17T04:43:00.388Z,100651.06
2018-03-17T04:45:29.719Z,100653.61
2018-03-17T04:47:58.106Z,100658.55
2018-03-17T04:50:26.441Z,100651.73
2018-03-17T04:52:54.807Z,100653.50
2018-03-17T04:55:23.153Z,100650.84
2018-03-17T04:57:51.544Z,100659.20
2018-03-17T05:00:19.873Z,100655.08
2018-03-17T05:02:49.002Z,100656.67
2018-03-17T05:05:17.350Z,100654.53
2018-03-17T05:07:46.442Z,100651.14
2018-03-17T05:10:15.558Z,100647.90
2018-03-17T05:12:44.633Z,100642.59
2018-03-17T05:15:13.766Z,100649.74
2018-03-17T05:17:42.912Z,100645.69
2018-03-17T05:20:12.022Z,100644.17
2018-03-17T05:22:40.368Z,100647.64
2018-03-17T05:25:08.758Z,100640.35
2018-03-17T05:27:37.097Z,100639.02
2018-03-17T05:30:05.506Z,100644.18
2018-03-17T05:32:33.994Z,100644.29
2018-03-17T05:35:02.365Z,100644.99
2018-03-17T05:37:30.847Z,100644.52
2018-03-17T05:39:59.225Z,100648.70
2018-03-17T05:42:27.969Z,100660.05
2018-03-17T05:44:56.362Z,100662.08
2018-03-17T05:47:25.058Z,100661.08
2018-03-17T05:49:53.546Z,100660.77
2018-03-17T05:52:22.981Z,100670.40
2018-03-17T05:54:51.372Z,100664.16
2018-03-17T05:57:19.880Z,100677.13
2018-03-17T05:59:48.252Z,100677.50
2018-03-17T06:02:16.604Z,100675.46
2018-03-17T06:04:44.930Z,100673.33
2018-03-17T06:07:13.526Z,100662.72
2018-03-17T06:09:42.104Z,100668.05
2018-03-17T06:12:10.525Z,100670.95
2018-03-17T06:14:38.909Z,100680.16
2018-03-17T06:17:07.249Z,100675.36
2018-03-17T06:19:36.433Z,100675.29
2018-03-17T06:22:05.599Z,100676.81
2018-03-17T06:24:33.948Z,100677.90
2018-03-17T06:27:03.090Z,100679.70
2018-03-17T06:29:31.422Z,100687.98
2018-03-17T06:32:00.540Z,100671.45
2018-03-17T06:34:28.864Z,100682.94
2018-03-17T06:36:57.240Z,100685.52
2018-03-17T06:39:25.573Z,100691.99
2018-03-17T06:41:53.930Z,100695.42
2018-03-17T06:44:23.008Z,100700.35
2018-03-17T06:46:52.171Z,100686.06
2018-03-17T06:49:20.503Z,100690.16
2018-03-17T06:51:49.593Z,100707.81
2018-03-17T06:54:17.949Z,100705.13
2018-03-17T06:56:46.309Z,100699.11
2018-03-17T06:59:14.638Z,100693.91
2018-03-17T07:01:43.015Z,100705.89
2018-03-17T07:04:11.343Z,100703.05
2018-03-17T07:06:39.671Z,100708.91
2018-03-17T07:09:08.016Z,100703.34
2018-03-17T07:11:36.390Z,100703.28
2018-03-17T07:14:04.701Z,100707.50
2018-03-17T07:16:33.049Z,100728.63
2018-03-17T07:19:01.396Z,100706.33
2018-03-17T07:21:29.729Z,100705.48
2018-03-17T07:23:58.082Z,100704.11
2018-03-17T07:26:27.177Z,100702.15
2018-03-17T07:28:55.561Z,100710.25
2018-03-17T07:31:24.641Z,100703.84
2018-03-17T07:33:52.992Z,100710.95
2018-03-17T07:36:21.345Z,100705.92
2018-03-17T07:38:49.679Z,100712.21
2018-03-17T07:41:18.034Z,100716.70
2018-03-17T07:43:46.425Z,100714.44
2018-03-17T07:46:14.763Z,100702.74
2018-03-17T07:48:43.098Z,100715.08
2018-03-17T07:51:12.253Z,100715.20
2018-03-17T07:53:40.614Z,100713.09
2018-03-17T07:56:10.100Z,100710.72
2018-03-17T07:58:38.468Z,100710.42
2018-03-17T08:01:06.809Z,100710.43
2018-03-17T08:03:35.168Z,100705.22
2018-03-17T08:06:03.536Z,100701.59
2018-03-17T08:08:31.855Z,100700.40
2018-03-17T08:11:00.601Z,100693.72
2018-03-17T08:13:28.969Z,100694.93
2018-03-17T08:15:58.483Z,100700.38
2018-03-17T08:18:26.898Z,100711.28
2018-03-17T08:20:55.253Z,100687.41
2018-03-17T08:23:23.581Z,100682.13
2018-03-17T08:25:52.713Z,100679.66
2018-03-17T08:28:21.034Z,100683.41
2018-03-17T08:30:49.411Z,100681.83
2018-03-17T08:33:17.738Z,100692.42
2018-03-17T08:35:46.851Z,100695.75
2018-03-17T08:38:15.598Z,100684.55
2018-03-17T08:40:44.734Z,100680.57
2018-03-17T08:43:13.482Z,100673.88
2018-03-17T08:45:41.825Z,100676.30
2018-03-17T08:48:10.157Z,100671.05
2018-03-17T08:50:38.505Z,100670.94
2018-03-17T08:53:07.652Z,100679.23
2018-03-17T08:55:35.974Z,100678.28
2018-03-17T08:58:05.094Z,100688.18
2018-03-17T09:00:33.417Z,100680.13
2018-03-17T09:03:01.773Z,100682.55
2018-03-17T09:05:30.098Z,100683.41
2018-03-17T09:07:59.226Z,100690.58
2018-03-17T09:10:27.544Z,100685.12
2018-03-17T09:12:55.873Z,100684.37
2018-03-17T09:15:24.213Z,100703.55
2018-03-17T09:17:53.289Z,100682.66
2018-03-17T09:20:21.660Z,100679.55
2018-03-17T09:22:49.981Z,100692.90
2018-03-17T09:25:29.037Z,100695.18
2018-03-17T09:27:58.339Z,100683.27
2018-03-17T09:30:26.890Z,100695.02
2018-03-17T09:32:56.391Z,100696.67
2018-03-17T09:35:25.537Z,100689.95
2018-03-17T09:37:53.873Z,100687.88
2018-03-17T09:40:22.608Z,100693.11
2018-03-17T09:42:50.986Z,100703.91
2018-03-17T09:45:20.108Z,100689.62
2018-03-17T09:47:49.224Z,100698.91
2018-03-17T09:50:18.443Z,100690.02
2018-03-17T09:52:46.857Z,100684.95
2018-03-17T09:55:15.221Z,100682.31
2018-03-17T09:57:43.661Z,100681.07
2018-03-17T10:00:12.348Z,100689.14
2018-03-17T10:02:41.487Z,100669.45
2018-03-17T10:05:09.967Z,100668.77
2018-03-17T10:07:38.338Z,100660.22
2018-03-17T10:10:06.691Z,100677.19
2018-03-17T10:12:35.060Z,100690.22
2018-03-17T10:15:03.410Z,100677.05
2018-03-17T10:17:31.797Z,100680.14
2018-03-17T10:20:00.924Z,100683.30
2018-03-17T10:22:29.247Z,100685.22
2018-03-17T10:24:57.624Z,100683.25
2018-03-17T10:27:25.946Z,100670.64
2018-03-17T10:29:54.413Z,100649.87
2018-03-17T10:32:23.532Z,100675.71
2018-03-17T10:34:51.906Z,100674.03
2018-03-17T10:37:20.269Z,100665.97
2018-03-17T10:39:49.519Z,100668.86
2018-03-17T10:42:17.996Z,100669.67
2018-03-17T10:44:46.421Z,100675.42
2018-03-17T10:47:16.119Z,100682.30
2018-03-17T10:49:46.266Z,100662.96
2018-03-17T10:52:14.636Z,100682.30
2018-03-17T10:54:44.688Z,100672.70
2018-03-17T10:57:13.500Z,100669.14
2018-03-17T10:59:41.953Z,100669.96
2018-03-17T11:02:10.279Z,100655.95
2018-03-17T11:04:38.691Z,100665.95
2018-03-17T11:07:07.090Z,100665.61
2018-03-17T11:09:37.317Z,100645.95
2018-03-17T11:12:05.715Z,100668.69
2018-03-17T11:14:34.160Z,100652.78
2018-03-17T11:17:08.508Z,100651.58
2018-03-17T11:22:11.572Z,100662.62
2018-03-17T11:24:41.218Z,100656.02
2018-03-17T11:27:09.581Z,100664.08
2018-03-17T11:29:37.958Z,100664.69
2018-03-17T11:32:07.053Z,100662.59
2018-03-17T11:34:35.420Z,100661.26
2018-03-17T11:37:03.758Z,100662.92
2018-03-17T11:39:33.731Z,100670.84
2018-03-17T11:42:02.169Z,100657.97
2018-03-17T11:44:31.320Z,100645.42
2018-03-17T11:46:59.672Z,100653.71
2018-03-17T11:49:28.058Z,100655.10
2018-03-17T11:51:56.393Z,100645.78
2018-03-17T11:54:26.278Z,100650.53
2018-03-17T11:56:54.675Z,100647.55
2018-03-17T11:59:22.995Z,100643.33
2018-03-17T12:01:52.126Z,100643.62
2018-03-17T12:04:20.464Z,100638.77
2018-03-17T12:06:48.859Z,100643.02
2018-03-17T12:09:17.262Z,100639.91
2018-03-17T12:11:45.614Z,100647.58
2018-03-17T12:14:14.322Z,100640.98
2018-03-17T12:16:43.052Z,100619.23
2018-03-17T12:19:11.461Z,100637.09
2018-03-17T12:21:39.774Z,100624.45
2018-03-17T12:24:08.436Z,100617.08
2018-03-17T12:26:36.896Z,100615.81
2018-03-17T12:29:05.356Z,100620.02
2018-03-17T12:31:33.816Z,100632.58
2018-03-17T12:34:03.064Z,100616.20
2018-03-17T12:36:32.753Z,100608.11
2018-03-17T12:39:01.211Z,100611.56
2018-03-17T12:41:31.130Z,100612.08
2018-03-17T12:43:59.673Z,100626.92
2018-03-17T12:46:28.084Z,100605.80
2018-03-17T12:48:57.195Z,100598.70
2018-03-17T12:51:26.891Z,100607.88
2018-03-17T12:53:56.097Z,100608.77
2018-03-17T12:56:24.453Z,100601.48
2018-03-17T12:58:55.241Z,100546.84
2018-03-17T13:01:24.953Z,100608.67
2018-03-17T13:03:53.362Z,100611.94
2018-03-17T13:06:22.503Z,100605.84
2018-03-17T13:08:50.926Z,100605.38
2018-03-17T13:11:19.260Z,100609.41
2018-03-17T13:13:47.601Z,100610.17
2018-03-17T13:16:15.979Z,100610.20
2018-03-17T13:18:44.335Z,100606.06
2018-03-17T13:21:12.674Z,100623.91
2018-03-17T13:23:41.175Z,100635.42
2018-03-17T13:26:10.868Z,100615.79
2018-03-17T13:28:39.211Z,100613.08
2018-03-17T13:31:08.294Z,100618.50
2018-03-17T13:33:36.842Z,100599.19
2018-03-17T13:36:22.900Z,100601.39
2018-03-17T13:38:51.266Z,100605.95
2018-03-17T13:41:21.131Z,100610.70
2018-03-17T13:43:58.498Z,100605.55
2018-03-17T13:46:26.870Z,100617.75
2018-03-17T13:48:55.220Z,100628.80
2018-03-17T13:51:24.557Z,100608.16
2018-03-17T13:53:54.082Z,100617.68
2018-03-17T13:56:23.098Z,100625.23
2018-03-17T13:58:51.504Z,100626.27
2018-03-17T14:01:20.697Z,100620.63
2018-03-17T14:03:49.812Z,100617.43
2018-03-17T14:06:18.196Z,100623.55
2018-03-17T14:08:46.647Z,100606.87
2018-03-17T14:11:16.286Z,100613.63
2018-03-17T14:13:45.411Z,100611.94
2018-03-17T14:16:14.296Z,100609.89
2018-03-17T14:18:43.912Z,100592.64
2018-03-17T14:21:12.406Z,100599.30
2018-03-17T14:23:40.839Z,100595.03
2018-03-17T14:26:10.333Z,100590.70
2018-03-17T14:28:39.876Z,100607.09
2018-03-17T14:31:08.309Z,100596.57
2018-03-17T14:33:36.785Z,100597.63
2018-03-17T14:36:06.493Z,100605.16
2018-03-17T14:38:35.678Z,100610.18
2018-03-17T14:41:07.532Z,100607.95
2018-03-17T14:43:35.912Z,100615.63
2018-03-17T14:46:05.395Z,100603.45
2018-03-17T14:48:33.815Z,100616.70
2018-03-17T14:51:02.190Z,100618.01
2018-03-17T14:53:32.889Z,100618.96
2018-03-17T14:56:05.535Z,100614.57
2018-03-17T14:58:34.825Z,100605.63
2018-03-17T15:01:04.464Z,100619.63
2018-03-17T15:03:32.806Z,100609.86
2018-03-17T15:06:21.407Z,100620.47
2018-03-17T15:08:49.862Z,100608.41
2018-03-17T15:11:18.363Z,100628.27
2018-03-17T15:13:46.880Z,100619.08
2018-03-17T15:16:19.253Z,100624.52
2018-03-17T15:18:47.955Z,100620.14
2018-03-17T15:21:16.368Z,100620.95
2018-03-17T15:23:44.746Z,100621.27
2018-03-17T15:26:13.092Z,100615.54
2018-03-17T15:28:41.511Z,100615.11
2018-03-17T15:31:14.397Z,100630.21
2018-03-17T15:33:43.672Z,100623.37
2018-03-17T15:36:15.078Z,100621.02
2018-03-17T15:38:43.494Z,100617.88
2018-03-17T15:41:11.961Z,100623.41
2018-03-17T15:43:41.453Z,100618.81
2018-03-17T15:46:09.853Z,100623.39
2018-03-17T15:48:38.963Z,100630.75
2018-03-17T15:51:08.321Z,100629.68
2018-03-17T15:53:37.088Z,100588.05
2018-03-17T15:56:05.593Z,100623.98
2018-03-17T15:58:34.877Z,100614.91
2018-03-17T16:01:03.269Z,100622.41
2018-03-17T16:03:32.371Z,100614.15
2018-03-17T16:06:00.747Z,100629.61
2018-03-17T16:08:29.092Z,100626.92
2018-03-17T16:10:57.445Z,100617.59
2018-03-17T16:13:25.802Z,100634.41
2018-03-17T16:15:54.143Z,100626.98
2018-03-17T16:18:22.509Z,100634.11
2018-03-17T16:20:50.849Z,100630.20
2018-03-17T16:23:19.213Z,100640.98
2018-03-17T16:25:47.775Z,100641.13
2018-03-17T16:28:16.173Z,100642.28
2018-03-17T16:30:44.537Z,100650.59
2018-03-17T16:33:12.877Z,100644.45
2018-03-17T16:35:42.356Z,100647.78
2018-03-17T16:38:10.723Z,100648.49
2018-03-17T16:40:39.428Z,100658.23
2018-03-17T16:43:07.782Z,100664.25
2018-03-17T16:45:36.218Z,100657.70
2018-03-17T16:48:04.634Z,100662.33
2018-03-17T16:50:33.265Z,100662.11
2018-03-17T16:53:01.765Z,100665.88
2018-03-17T16:55:30.909Z,100668.20
2018-03-17T16:57:59.297Z,100670.17
2018-03-17T17:00:30.062Z,100665.80
2018-03-17T17:02:58.531Z,100671.03
2018-03-17T17:05:27.305Z,100665.56
2018-03-17T17:07:55.661Z,100678.33
2018-03-17T17:10:25.927Z,100666.38
2018-03-17T17:13:00.883Z,100672.53
2018-03-17T17:15:33.921Z,100665.17
2018-03-17T17:18:02.389Z,100676.69
2018-03-17T17:20:31.101Z,100688.37
2018-03-17T17:22:59.568Z,100673.73
2018-03-17T17:25:28.064Z,100677.98
2018-03-17T17:27:56.784Z,100677.13
2018-03-17T17:30:25.409Z,100682.90
2018-03-17T17:32:53.771Z,100685.65
2018-03-17T17:35:23.559Z,100686.50
2018-03-17T17:37:51.995Z,100680.98
2018-03-17T17:40:20.385Z,100695.27
2018-03-17T17:42:49.473Z,100694.34
2018-03-17T17:45:17.985Z,100688.80
2018-03-17T17:47:47.159Z,100694.47
2018-03-17T17:50:16.721Z,100689.67
2018-03-17T17:52:45.110Z,100693.87
2018-03-17T17:55:14.741Z,100692.48
2018-03-17T17:57:43.359Z,100694.70
2018-03-17T18:00:12.600Z,100692.55
2018-03-17T18:02:41.257Z,100702.58
2018-03-17T18:05:11.169Z,100700.27
2018-03-17T18:07:39.535Z,100704.18
2018-03-17T18:10:08.847Z,100705.70
2018-03-17T18:12:37.197Z,100707.66
2018-03-17T18:15:06.945Z,100709.83
2018-03-17T18:17:35.404Z,100709.78
2018-03-17T18:20:04.577Z,100712.34
2018-03-17T18:22:32.961Z,100711.44
2018-03-17T18:25:01.291Z,100708.37
2018-03-17T18:27:29.812Z,100713.62
2018-03-17T18:30:00.063Z,100710.03
2018-03-17T18:32:28.541Z,100665.61
2018-03-17T18:34:57.149Z,100714.09
2018-03-17T18:37:25.580Z,100720.57
2018-03-17T18:39:54.201Z,100714.43
2018-03-17T18:42:23.373Z,100706.58
2018-03-17T18:44:51.761Z,100722.44
2018-03-17T18:47:20.582Z,100713.36
2018-03-17T18:49:49.385Z,100725.47
2018-03-17T18:52:17.741Z,100726.05
2018-03-17T18:54:46.220Z,100725.21
2018-03-17T18:57:14.935Z,100716.95
2018-03-17T18:59:43.468Z,100724.17
2018-03-17T19:02:12.661Z,100729.23
2018-03-17T19:04:41.815Z,100726.41
2018-03-17T19:07:10.239Z,100740.94
2018-03-17T19:09:40.032Z,100728.64
2018-03-17T19:12:08.512Z,100726.20
2018-03-17T19:14:37.048Z,100735.53
2018-03-17T19:17:05.436Z,100732.09
2018-03-17T19:19:33.766Z,100733.93
2018-03-17T19:22:04.419Z,100728.36
2018-03-17T19:24:33.692Z,100722.86
2018-03-17T19:27:02.850Z,100739.47
2018-03-17T19:29:32.198Z,100732.81
2018-03-17T19:32:01.565Z,100728.20
2018-03-17T19:34:29.952Z,100725.45
2018-03-17T19:36:58.380Z,100723.88
2018-03-17T19:39:26.764Z,100728.77
2018-03-17T19:41:55.866Z,100731.08
2018-03-17T19:44:25.963Z,100733.81
2018-03-17T19:46:54.652Z,100732.83
2018-03-17T19:49:23.020Z,100736.69
2018-03-17T19:51:52.627Z,100741.27
2018-03-17T19:54:21.722Z,100731.52
2018-03-17T19:56:51.230Z,100737.95
2018-03-17T19:59:19.575Z,100737.38
2018-03-17T20:01:47.923Z,100726.75
2018-03-17T20:04:16.256Z,100736.00
2018-03-17T20:06:45.368Z,100738.59
2018-03-17T20:09:13.752Z,100742.20
2018-03-17T20:11:42.474Z,100735.53
2018-03-17T20:14:12.047Z,100745.20
2018-03-17T20:16:40.408Z,100750.84
2018-03-17T20:19:10.554Z,100748.38
2018-03-17T20:21:38.920Z,100731.59
2018-03-17T20:24:07.905Z,100759.86
2018-03-17T20:26:36.301Z,100758.25
2018-03-17T20:29:04.654Z,100754.63
2018-03-17T20:31:33.099Z,100763.05
2018-03-17T20:34:01.435Z,100762.06
2018-03-17T20:36:29.812Z,100766.47
2018-03-17T20:38:58.155Z,100770.06
2018-03-17T20:41:27.869Z,100779.66
2018-03-17T20:43:56.336Z,100776.16
2018-03-17T20:46:25.432Z,100770.51
2018-03-17T20:48:55.023Z,100771.85
2018-03-17T20:51:23.371Z,100785.67
2018-03-17T20:53:51.797Z,100774.72
2018-03-17T20:56:20.903Z,100774.41
2018-03-17T20:58:50.042Z,100786.25
2018-03-17T21:01:18.412Z,100779.63
2018-03-17T21:03:47.546Z,100788.41
2018-03-17T21:06:15.893Z,100796.40
2018-03-17T21:08:44.355Z,100786.72
2018-03-17T21:11:12.715Z,100790.99
2018-03-17T21:13:41.095Z,100804.95
2018-03-17T21:16:09.561Z,100797.89
2018-03-17T21:18:38.663Z,100792.13
2018-03-17T21:21:07.791Z,100785.86
2018-03-17T21:23:36.111Z,100795.68
2018-03-17T21:26:04.486Z,100780.67
2018-03-17T21:28:32.848Z,100798.77
2018-03-17T21:31:01.216Z,100796.48
2018-03-17T21:33:29.573Z,100785.58
2018-03-17T21:35:58.672Z,100786.02
2018-03-17T21:38:27.106Z,100779.37
2018-03-17T21:40:55.489Z,100777.36
2018-03-17T21:43:23.818Z,100784.31
2018-03-17T21:45:52.207Z,100781.66
2018-03-17T21:48:20.528Z,100786.30
2018-03-17T21:50:49.303Z,100789.39
2018-03-17T21:53:18.418Z,100791.62
2018-03-17T21:55:47.538Z,100788.83
2018-03-17T21:58:17.025Z,100788.06
2018-03-17T22:00:45.407Z,100804.11
2018-03-17T22:03:13.734Z,100810.59
2018-03-17T22:05:42.096Z,100802.97
2018-03-17T22:08:10.422Z,100796.96
2018-03-17T22:10:39.188Z,100800.55
2018-03-17T22:13:07.526Z,100798.50
2018-03-17T22:15:35.906Z,100802.97
2018-03-17T22:18:04.342Z,100799.86
2018-03-17T22:20:33.448Z,100810.28
2018-03-17T22:23:01.799Z,100801.16
2018-03-17T22:25:30.171Z,100795.36
2018-03-17T22:27:59.566Z,100804.66
2018-03-17T22:30:28.086Z,100803.45
2018-03-17T22:32:57.157Z,100803.56
2018-03-17T22:35:26.302Z,100809.42
2018-03-17T22:37:54.650Z,100798.09
2018-03-17T22:40:23.026Z,100805.73
2018-03-17T22:42:52.927Z,100808.27
2018-03-17T22:45:22.048Z,100806.47
2018-03-17T22:47:50.386Z,100810.58
2018-03-17T22:50:18.777Z,100808.44
2018-03-17T22:52:47.166Z,100809.83
2018-03-17T22:55:16.300Z,100804.44
2018-03-17T22:57:44.640Z,100809.44
2018-03-17T23:00:13.784Z,100817.61
2018-03-17T23:02:42.124Z,100790.30
2018-03-17T23:05:11.305Z,100809.69
2018-03-17T23:07:40.395Z,100798.36
2018-03-17T23:10:08.741Z,100817.86
2018-03-17T23:12:37.125Z,100820.10
2018-03-17T23:15:05.509Z,100817.73
2018-03-17T23:17:33.849Z,100821.23
2018-03-17T23:20:02.246Z,100822.78
2018-03-17T23:22:30.576Z,100820.11
2018-03-17T23:24:59.715Z,100819.63
2018-03-17T23:27:28.424Z,100833.60
2018-03-17T23:29:57.030Z,100828.40
2018-03-17T23:32:26.196Z,100827.45
2018-03-17T23:34:54.544Z,100825.09
2018-03-17T23:37:22.870Z,100826.89
2018-03-17T23:39:51.201Z,100822.00
2018-03-17T23:42:19.569Z,100829.95
2018-03-17T23:44:47.920Z,100832.66
2018-03-17T23:47:17.009Z,100840.36
2018-03-17T23:49:46.137Z,100832.88
2018-03-17T23:52:14.502Z,100838.24
2018-03-17T23:54:42.885Z,100846.16
2018-03-17T23:57:11.236Z,100855.14
2018-03-17T23:59:39.616Z,100839.72
